createdAt,value
2022-11-02T00:02:17.719Z,12.83
2022-11-02T00:04:45.020Z,13.18
2022-11-02T00:07:12.702Z,13.29
2022-11-02T00:09:40.507Z,13.09
2022-11-02T00:12:07.897Z,13.42
2022-11-02T00:14:35.204Z,13.45
2022-11-02T00:17:02.836Z,13.47
2022-11-02T00:19:31.063Z,13.54
2022-11-02T00:21:59.261Z,13.54
2022-11-02T00:24:26.687Z,13.44
2022-11-02T00:26:55.326Z,13.24
2022-11-02T00:29:24.536Z,13.35
2022-11-02T00:31:52.138Z,13.32
2022-11-02T00:34:19.469Z,12.98
2022-11-02T00:36:49.599Z,12.66
2022-11-02T00:39:20.691Z,12.48
2022-11-02T00:41:47.844Z,12.60
2022-11-02T00:44:15.347Z,12.76
2022-11-02T00:46:42.962Z,12.80
2022-11-02T00:49:10.780Z,12.89
2022-11-02T00:51:38.774Z,12.96
2022-11-02T00:54:06.233Z,13.02
2022-11-02T00:56:34.208Z,13.02
2022-11-02T00:59:04.247Z,13.07
2022-11-02T01:01:32.512Z,12.91
2022-11-02T01:04:00.402Z,12.89
2022-11-02T01:06:28.051Z,12.98
2022-11-02T01:08:55.630Z,12.69
2022-11-02T01:11:25.231Z,12.80
2022-11-02T01:13:53.174Z,12.89
2022-11-02T01:16:41.376Z,12.89
2022-11-02T01:19:08.990Z,12.88
2022-11-02T01:21:36.364Z,12.85
2022-11-02T01:24:04.106Z,12.79
2022-11-02T01:26:32.657Z,12.82
2022-11-02T01:28:59.959Z,12.79
2022-11-02T01:31:28.180Z,12.77
2022-11-02T01:33:55.682Z,12.61
2022-11-02T01:38:56.056Z,12.47
2022-11-02T01:41:23.609Z,12.39
2022-11-02T01:43:55.510Z,12.48
2022-11-02T01:46:44.645Z,12.38
2022-11-02T01:49:16.675Z,12.38
2022-11-02T01:51:57.727Z,12.24
2022-11-02T01:54:38.191Z,12.21
2022-11-02T01:57:08.512Z,12.31
2022-11-02T01:59:43.793Z,12.31
2022-11-02T02:02:18.689Z,12.11
2022-11-02T02:04:51.317Z,12.25
2022-11-02T02:07:19.787Z,12.23
2022-11-02T02:09:50.390Z,12.15
2022-11-02T02:12:19.974Z,12.18
2022-11-02T02:14:47.718Z,12.09
2022-11-02T02:17:37.614Z,12.11
2022-11-02T02:20:35.275Z,12.19
2022-11-02T02:23:05.439Z,12.16
2022-11-02T02:26:05.939Z,12.18
2022-11-02T02:28:39.686Z,12.17
2022-11-02T02:31:33.054Z,12.07
2022-11-02T02:34:21.325Z,11.82
2022-11-02T02:37:30.167Z,11.53
2022-11-02T02:40:03.289Z,11.23
2022-11-02T02:42:41.363Z,11.12
2022-11-02T02:45:32.346Z,10.97
2022-11-02T02:48:10.322Z,10.97
2022-11-02T02:51:13.225Z,10.83
2022-11-02T02:53:57.832Z,10.66
2022-11-02T02:56:30.703Z,10.46
2022-11-02T02:59:03.014Z,10.08
2022-11-02T03:01:32.321Z,10.28
2022-11-02T03:03:59.817Z,10.25
2022-11-02T03:06:32.807Z,10.35
2022-11-02T03:09:19.317Z,10.34
2022-11-02T03:11:57.880Z,10.20
2022-11-02T03:15:11.339Z,10.27
2022-11-02T03:18:11.673Z,10.31
2022-11-02T03:21:23.046Z,10.42
2022-11-02T03:24:05.002Z,10.31
2022-11-02T03:26:46.786Z,10.52
2022-11-02T03:29:22.187Z,10.38
2022-11-02T03:32:00.643Z,10.49
2022-11-02T03:34:38.820Z,10.46
2022-11-02T03:37:20.332Z,10.48
2022-11-02T03:39:59.302Z,10.54
2022-11-02T03:42:31.244Z,10.55
2022-11-02T03:45:11.877Z,10.60
2022-11-02T03:47:41.052Z,10.60
2022-11-02T03:50:14.181Z,10.67
2022-11-02T03:52:45.562Z,10.66
2022-11-02T03:55:26.165Z,10.72
2022-11-02T03:57:54.792Z,10.82
2022-11-02T04:00:29.815Z,10.77
2022-11-02T04:03:07.252Z,11.06
2022-11-02T04:05:39.114Z,11.08
2022-11-02T04:08:45.380Z,11.26
2022-11-02T04:11:31.963Z,11.32
2022-11-02T04:14:23.031Z,11.40
2022-11-02T04:17:11.122Z,11.33
2022-11-02T04:19:41.391Z,11.44
2022-11-02T04:22:30.558Z,11.39
2022-11-02T04:25:21.104Z,11.49
2022-11-02T04:28:14.341Z,11.41
2022-11-02T04:30:48.632Z,11.58
2022-11-02T04:33:34.743Z,11.50
2022-11-02T04:36:09.592Z,11.38
2022-11-02T04:38:42.688Z,11.29
2022-11-02T04:41:44.801Z,10.94
2022-11-02T04:44:26.288Z,11.09
2022-11-02T04:47:03.094Z,11.23
2022-11-02T04:49:32.702Z,11.07
2022-11-02T04:51:59.878Z,11.25
2022-11-02T04:54:29.401Z,11.32
2022-11-02T04:57:00.991Z,11.37
2022-11-02T04:59:29.836Z,11.39
2022-11-02T05:01:58.524Z,11.43
2022-11-02T05:04:25.921Z,11.46
2022-11-02T05:06:56.396Z,11.44
2022-11-02T05:09:27.159Z,11.47
2022-11-02T05:11:54.332Z,11.45
2022-11-02T05:14:21.893Z,11.49
2022-11-02T05:16:49.341Z,11.46
2022-11-02T05:19:16.555Z,11.45
2022-11-02T05:21:44.438Z,11.53
2022-11-02T05:24:12.431Z,11.47
2022-11-02T05:26:39.887Z,11.53
2022-11-02T05:29:09.612Z,10.95
2022-11-02T05:31:37.559Z,11.12
2022-11-02T05:34:04.872Z,11.23
2022-11-02T05:36:32.143Z,11.08
2022-11-02T05:38:59.571Z,11.35
2022-11-02T05:41:27.361Z,11.42
2022-11-02T05:43:56.438Z,11.28
2022-11-02T05:46:25.547Z,11.31
2022-11-02T05:48:52.923Z,11.48
2022-11-02T05:51:20.122Z,11.47
2022-11-02T05:53:47.227Z,11.43
2022-11-02T05:56:14.872Z,11.36
2022-11-02T05:58:42.368Z,11.64
2022-11-02T06:01:10.731Z,11.68
2022-11-02T06:03:38.141Z,11.76
2022-11-02T06:06:07.878Z,11.75
2022-11-02T06:08:36.148Z,12.04
2022-11-02T06:11:06.957Z,12.12
2022-11-02T06:13:34.604Z,12.16
2022-11-02T06:16:03.842Z,12.22
2022-11-02T06:18:34.634Z,12.19
2022-11-02T06:21:02.355Z,12.22
2022-11-02T06:23:30.230Z,12.27
2022-11-02T06:25:59.416Z,12.23
2022-11-02T06:28:27.788Z,12.43
2022-11-02T06:30:55.539Z,12.49
2022-11-02T06:33:23.330Z,12.47
2022-11-02T06:35:52.621Z,12.62
2022-11-02T06:38:20.403Z,12.48
2022-11-02T06:40:55.867Z,12.75
2022-11-02T06:43:24.268Z,12.39
2022-11-02T06:45:55.921Z,12.52
2022-11-02T06:48:23.606Z,12.41
2022-11-02T06:50:51.213Z,12.61
2022-11-02T06:53:18.777Z,12.62
2022-11-02T06:55:51.359Z,12.35
2022-11-02T06:58:18.627Z,12.04
2022-11-02T07:00:45.891Z,12.53
2022-11-02T07:03:13.417Z,12.34
2022-11-02T07:05:40.739Z,12.59
2022-11-02T07:08:07.952Z,12.87
2022-11-02T07:10:36.025Z,12.92
2022-11-02T07:13:04.124Z,12.96
2022-11-02T07:15:31.582Z,13.14
2022-11-02T07:17:59.079Z,13.13
2022-11-02T07:20:26.577Z,13.30
2022-11-02T07:22:56.703Z,13.37
2022-11-02T07:25:25.403Z,13.61
2022-11-02T07:27:53.377Z,13.76
2022-11-02T07:30:21.064Z,13.95
2022-11-02T07:32:48.580Z,13.84
2022-11-02T07:35:17.849Z,14.20
2022-11-02T07:37:45.247Z,14.43
2022-11-02T07:40:16.107Z,14.57
2022-11-02T07:42:49.118Z,14.70
2022-11-02T07:45:21.899Z,14.84
2022-11-02T07:47:50.039Z,14.92
2022-11-02T07:50:19.843Z,15.04
2022-11-02T07:52:49.347Z,15.16
2022-11-02T07:55:18.549Z,15.38
2022-11-02T07:57:57.897Z,15.55
2022-11-02T08:00:27.181Z,15.77
2022-11-02T08:02:55.907Z,15.80
2022-11-02T08:05:24.038Z,16.06
2022-11-02T08:07:58.919Z,16.30
2022-11-02T08:10:26.848Z,16.58
2022-11-02T08:12:54.891Z,16.82
2022-11-02T08:15:22.358Z,16.92
2022-11-02T08:18:04.061Z,17.03
2022-11-02T08:20:32.810Z,17.24
2022-11-02T08:23:00.018Z,17.45
2022-11-02T08:25:27.516Z,17.68
2022-11-02T08:27:59.905Z,17.92
2022-11-02T08:30:29.054Z,18.05
2022-11-02T08:33:02.623Z,18.26
2022-11-02T08:35:29.931Z,18.50
2022-11-02T08:37:58.271Z,18.68
2022-11-02T08:40:26.324Z,18.81
2022-11-02T08:43:00.936Z,18.98
2022-11-02T08:45:35.105Z,19.09
2022-11-02T08:48:10.086Z,19.42
2022-11-02T08:50:37.561Z,19.37
2022-11-02T08:53:05.499Z,19.62
2022-11-02T08:55:32.707Z,19.69
2022-11-02T08:58:00.708Z,20.14
2022-11-02T09:00:32.974Z,20.44
2022-11-02T09:03:08.896Z,20.39
2022-11-02T09:05:39.201Z,20.93
2022-11-02T09:08:09.997Z,20.84
2022-11-02T09:10:37.958Z,21.24
2022-11-02T09:13:07.875Z,21.40
2022-11-02T09:15:36.992Z,21.74
2022-11-02T09:18:06.088Z,22.05
2022-11-02T09:20:33.800Z,22.45
2022-11-02T09:23:01.128Z,22.52
2022-11-02T09:25:28.971Z,23.10
2022-11-02T09:27:58.004Z,23.34
2022-11-02T09:30:26.961Z,23.53
2022-11-02T09:33:02.769Z,24.07
2022-11-02T09:35:32.800Z,24.35
2022-11-02T09:38:00.299Z,24.56
2022-11-02T09:40:52.215Z,24.67
2022-11-02T09:43:32.091Z,24.86
2022-11-02T09:46:06.676Z,25.06
2022-11-02T09:48:45.516Z,25.12
2022-11-02T09:51:15.404Z,25.26
2022-11-02T09:53:53.179Z,25.20
2022-11-02T09:56:20.527Z,25.27
2022-11-02T09:58:56.415Z,25.52
2022-11-02T10:01:38.543Z,25.37
2022-11-02T10:04:06.006Z,25.70
2022-11-02T10:06:38.173Z,25.72
2022-11-02T10:09:40.728Z,25.78
2022-11-02T10:12:35.497Z,25.93
2022-11-02T10:15:09.547Z,25.92
2022-11-02T10:17:40.072Z,26.05
2022-11-02T10:20:28.475Z,26.20
2022-11-02T10:23:03.632Z,26.21
2022-11-02T10:25:31.124Z,26.28
2022-11-02T10:28:10.390Z,26.33
2022-11-02T10:30:38.564Z,26.30
2022-11-02T10:33:16.812Z,26.49
2022-11-02T10:36:18.474Z,26.52
2022-11-02T10:39:09.986Z,26.56
2022-11-02T10:42:14.557Z,26.74
2022-11-02T10:45:08.861Z,26.84
2022-11-02T10:48:01.237Z,26.77
2022-11-02T10:50:46.606Z,26.81
2022-11-02T10:56:19.917Z,26.79
2022-11-02T10:58:58.486Z,26.81
2022-11-02T11:01:26.841Z,26.91
2022-11-02T11:04:20.709Z,27.07
2022-11-02T11:06:48.269Z,27.13
2022-11-02T11:09:15.751Z,27.08
2022-11-02T11:11:54.558Z,27.33
2022-11-02T11:20:33.741Z,27.32
2022-11-02T11:23:10.566Z,27.53
2022-11-02T11:25:40.500Z,27.62
2022-11-02T11:28:52.210Z,27.51
2022-11-02T11:31:19.978Z,27.46
2022-11-02T11:33:50.928Z,27.57
2022-11-02T11:36:28.407Z,27.47
2022-11-02T11:39:00.167Z,27.67
2022-11-02T11:41:28.358Z,27.55
2022-11-02T11:43:55.714Z,27.67
2022-11-02T11:46:23.749Z,27.67
2022-11-02T11:48:54.912Z,27.68
2022-11-02T11:51:35.343Z,27.72
2022-11-02T11:54:31.212Z,27.71
2022-11-02T11:57:29.681Z,27.55
2022-11-02T12:00:01.219Z,27.51
2022-11-02T12:02:38.003Z,26.97
2022-11-02T12:05:21.079Z,27.23
2022-11-02T12:07:59.403Z,27.60
2022-11-02T12:10:56.668Z,27.55
2022-11-02T12:14:01.619Z,27.51
2022-11-02T12:16:56.553Z,27.51
2022-11-02T12:19:29.762Z,27.49
2022-11-02T12:22:29.288Z,27.52
2022-11-02T12:25:15.566Z,27.48
2022-11-02T12:27:52.774Z,27.62
2022-11-02T12:30:38.744Z,27.44
2022-11-02T12:34:13.916Z,27.19
2022-11-02T12:37:31.756Z,27.16
2022-11-02T12:40:01.689Z,27.11
2022-11-02T12:42:32.320Z,26.93
2022-11-02T12:45:18.277Z,27.19
2022-11-02T12:47:48.252Z,27.13
2022-11-02T12:50:15.586Z,27.17
2022-11-02T12:53:06.460Z,26.97
2022-11-02T12:55:38.947Z,26.97
2022-11-02T12:58:11.271Z,27.02
2022-11-02T13:00:43.139Z,26.77
2022-11-02T13:03:55.450Z,26.72
2022-11-02T13:06:30.546Z,26.67
2022-11-02T13:09:19.276Z,26.59
2022-11-02T13:11:53.640Z,26.45
2022-11-02T13:14:24.450Z,26.34
2022-11-02T13:17:11.860Z,26.22
2022-11-02T13:19:51.228Z,26.14
2022-11-02T13:22:21.416Z,26.05
2022-11-02T13:24:53.354Z,25.99
2022-11-02T13:27:36.493Z,25.96
2022-11-02T13:30:16.131Z,25.52
2022-11-02T13:33:01.439Z,25.79
2022-11-02T13:35:37.836Z,25.63
2022-11-02T13:41:35.301Z,25.48
2022-11-02T13:44:20.498Z,25.46
2022-11-02T13:47:15.509Z,25.40
2022-11-02T13:49:54.820Z,25.49
2022-11-02T13:52:49.378Z,24.90
2022-11-02T13:55:22.197Z,25.01
2022-11-02T13:57:59.228Z,24.92
2022-11-02T14:00:26.256Z,25.21
2022-11-02T14:03:00.654Z,25.32
2022-11-02T14:05:35.825Z,25.05
2022-11-02T14:08:07.991Z,24.94
2022-11-02T14:10:41.031Z,24.85
2022-11-02T14:13:17.402Z,24.82
2022-11-02T14:15:44.541Z,24.64
2022-11-02T14:18:27.344Z,24.67
2022-11-02T14:20:54.489Z,24.70
2022-11-02T14:23:36.551Z,24.62
2022-11-02T14:26:03.951Z,24.32
2022-11-02T14:28:34.131Z,24.11
2022-11-02T14:31:04.328Z,24.11
2022-11-02T14:34:17.646Z,24.12
2022-11-02T14:37:20.242Z,24.05
2022-11-02T14:40:11.223Z,23.99
2022-11-02T14:43:00.018Z,23.90
2022-11-02T14:45:52.664Z,23.70
2022-11-02T14:48:20.306Z,23.85
2022-11-02T14:51:14.609Z,23.70
2022-11-02T14:53:42.424Z,23.58
2022-11-02T14:56:09.852Z,23.67
2022-11-02T14:58:48.469Z,23.59
2022-11-02T15:01:17.004Z,23.49
2022-11-02T15:03:48.282Z,23.43
2022-11-02T15:06:23.746Z,23.32
2022-11-02T15:09:04.255Z,23.32
2022-11-02T15:11:49.815Z,23.28
2022-11-02T15:14:42.821Z,23.33
2022-11-02T15:17:13.114Z,23.21
2022-11-02T15:19:44.340Z,23.29
2022-11-02T15:22:36.571Z,23.22
2022-11-02T15:25:16.149Z,23.20
2022-11-02T15:27:45.379Z,23.16
2022-11-02T15:30:23.909Z,23.17
2022-11-02T15:33:06.994Z,22.99
2022-11-02T15:35:37.782Z,23.08
2022-11-02T15:38:29.517Z,22.93
2022-11-02T15:41:06.250Z,22.94
2022-11-02T15:43:52.571Z,22.83
2022-11-02T15:46:30.112Z,22.77
2022-11-02T15:49:14.613Z,22.73
2022-11-02T15:52:03.391Z,22.44
2022-11-02T15:54:33.597Z,22.48
2022-11-02T15:57:15.569Z,22.51
2022-11-02T16:00:08.241Z,22.52
2022-11-02T16:02:42.405Z,22.34
2022-11-02T16:05:20.926Z,22.48
2022-11-02T16:08:09.948Z,22.51
2022-11-02T16:10:38.495Z,22.53
2022-11-02T16:13:17.322Z,22.41
2022-11-02T16:15:46.273Z,22.33
2022-11-02T16:18:29.351Z,22.04
2022-11-02T16:21:02.547Z,22.10
2022-11-02T16:23:47.624Z,21.97
2022-11-02T16:26:22.149Z,21.97
2022-11-02T16:28:52.727Z,21.88
2022-11-02T16:31:31.268Z,21.68
2022-11-02T16:34:01.468Z,21.64
2022-11-02T16:36:32.345Z,21.52
2022-11-02T16:39:02.462Z,21.53
2022-11-02T16:41:32.118Z,21.48
2022-11-02T16:44:08.195Z,21.38
2022-11-02T16:46:42.440Z,21.41
2022-11-02T16:49:16.667Z,21.36
2022-11-02T16:51:59.958Z,21.30
2022-11-02T16:54:30.891Z,21.24
2022-11-02T16:57:11.487Z,21.16
2022-11-02T16:59:56.006Z,21.09
2022-11-02T17:02:39.612Z,21.00
2022-11-02T17:05:17.084Z,21.07
2022-11-02T17:07:50.616Z,21.02
2022-11-02T17:10:26.230Z,20.98
2022-11-02T17:12:56.958Z,21.04
2022-11-02T17:15:29.704Z,21.05
2022-11-02T17:18:09.868Z,21.05
2022-11-02T17:20:39.618Z,21.08
2022-11-02T17:23:27.796Z,20.99
2022-11-02T17:26:14.909Z,21.00
2022-11-02T17:28:45.251Z,20.94
2022-11-02T17:31:32.709Z,20.92
2022-11-02T17:34:16.513Z,20.86
2022-11-02T17:36:49.972Z,20.89
2022-11-02T17:39:19.883Z,20.88
2022-11-02T17:42:11.842Z,20.82
2022-11-02T17:44:39.691Z,20.72
2022-11-02T17:47:13.475Z,20.61
2022-11-02T17:49:41.019Z,20.68
2022-11-02T17:52:13.320Z,20.52
2022-11-02T17:54:40.955Z,20.62
2022-11-02T17:57:16.195Z,20.51
2022-11-02T17:59:44.073Z,20.37
2022-11-02T18:02:13.944Z,20.44
2022-11-02T18:04:41.411Z,20.29
2022-11-02T18:07:09.390Z,20.44
2022-11-02T18:09:36.617Z,20.43
2022-11-02T18:12:04.094Z,20.40
2022-11-02T18:14:31.552Z,20.35
2022-11-02T18:16:58.676Z,20.39
2022-11-02T18:19:25.895Z,20.26
2022-11-02T18:21:53.356Z,20.17
2022-11-02T18:24:20.541Z,20.24
2022-11-02T18:26:51.627Z,20.15
2022-11-02T18:29:22.450Z,20.33
2022-11-02T18:31:51.014Z,20.27
2022-11-02T18:34:18.177Z,20.20
2022-11-02T18:36:45.322Z,20.29
2022-11-02T18:39:12.614Z,20.33
2022-11-02T18:41:40.545Z,20.18
2022-11-02T18:44:13.794Z,20.09
2022-11-02T18:46:42.168Z,20.10
2022-11-02T18:49:09.973Z,20.13
2022-11-02T18:51:37.378Z,20.12
2022-11-02T18:54:06.137Z,20.16
2022-11-02T18:56:33.756Z,20.14
2022-11-02T18:59:01.629Z,19.85
2022-11-02T19:01:28.878Z,19.80
2022-11-02T19:03:58.519Z,19.83
2022-11-02T19:06:45.779Z,19.82
2022-11-02T19:09:21.401Z,19.83
2022-11-02T19:11:54.591Z,19.79
2022-11-02T19:14:23.181Z,19.79
2022-11-02T19:16:50.425Z,19.71
2022-11-02T19:19:17.738Z,19.86
2022-11-02T19:21:45.106Z,19.98
2022-11-02T19:24:12.430Z,20.07
2022-11-02T19:26:39.656Z,20.12
2022-11-02T19:29:07.079Z,20.12
2022-11-02T19:31:35.678Z,19.97
2022-11-02T19:34:04.189Z,19.96
2022-11-02T19:36:32.229Z,19.90
2022-11-02T19:39:00.263Z,19.91
2022-11-02T19:41:27.533Z,19.73
2022-11-02T19:43:54.643Z,19.72
2022-11-02T19:46:22.822Z,19.69
2022-11-02T19:48:50.740Z,19.54
2022-11-02T19:51:23.546Z,19.60
2022-11-02T19:53:53.036Z,19.54
2022-11-02T19:56:21.657Z,19.25
2022-11-02T19:58:51.221Z,18.89
2022-11-02T20:01:27.609Z,18.92
2022-11-02T20:03:55.911Z,19.08
2022-11-02T20:06:37.450Z,19.16
2022-11-02T20:09:07.066Z,19.19
2022-11-02T20:11:36.223Z,19.13
2022-11-02T20:14:05.151Z,18.74
2022-11-02T20:16:32.599Z,18.55
2022-11-02T20:19:00.039Z,18.55
2022-11-02T20:21:35.686Z,18.65
2022-11-02T20:24:08.025Z,18.73
2022-11-02T20:26:37.002Z,18.69
2022-11-02T20:29:06.500Z,18.47
2022-11-02T20:31:35.836Z,18.49
2022-11-02T20:34:04.883Z,18.47
2022-11-02T20:36:32.254Z,18.46
2022-11-02T20:38:59.726Z,18.60
2022-11-02T20:41:27.591Z,18.61
2022-11-02T20:43:55.946Z,18.28
2022-11-02T20:46:39.065Z,18.30
2022-11-02T20:49:21.009Z,18.01
2022-11-02T20:51:55.577Z,17.99
2022-11-02T20:54:23.011Z,18.13
2022-11-02T20:56:50.574Z,18.07
2022-11-02T20:59:18.323Z,18.04
2022-11-02T21:01:46.248Z,18.17
2022-11-02T21:04:32.144Z,18.32
2022-11-02T21:06:59.795Z,18.23
2022-11-02T21:09:27.107Z,18.34
2022-11-02T21:12:12.854Z,18.35
2022-11-02T21:14:40.123Z,18.30
2022-11-02T21:17:07.344Z,18.35
2022-11-02T21:19:34.995Z,18.18
2022-11-02T21:22:02.911Z,18.13
2022-11-02T21:24:30.402Z,17.92
2022-11-02T21:26:57.682Z,17.95
2022-11-02T21:29:25.065Z,18.15
2022-11-02T21:31:52.256Z,17.90
2022-11-02T21:34:21.255Z,17.98
2022-11-02T21:36:49.010Z,17.96
2022-11-02T21:39:16.784Z,17.91
2022-11-02T21:41:44.321Z,17.97
2022-11-02T21:44:12.153Z,17.99
2022-11-02T21:46:39.705Z,17.94
2022-11-02T21:49:07.346Z,17.87
2022-11-02T21:51:36.317Z,18.00
2022-11-02T21:54:06.820Z,18.06
2022-11-02T21:56:36.070Z,18.03
2022-11-02T21:59:05.420Z,18.00
2022-11-02T22:01:47.271Z,17.99
2022-11-02T22:04:19.646Z,17.82
2022-11-02T22:06:48.206Z,17.60
2022-11-02T22:09:15.975Z,17.50
2022-11-02T22:11:45.162Z,17.51
2022-11-02T22:14:13.756Z,17.36
2022-11-02T22:16:42.710Z,17.31
2022-11-02T22:19:14.700Z,17.23
2022-11-02T22:21:44.973Z,17.11
2022-11-02T22:24:12.661Z,17.15
2022-11-02T22:26:40.954Z,17.22
2022-11-02T22:29:09.592Z,17.04
2022-11-02T22:31:41.923Z,17.05
2022-11-02T22:34:11.651Z,17.08
2022-11-02T22:36:42.061Z,16.98
2022-11-02T22:39:12.892Z,17.14
2022-11-02T22:41:42.587Z,17.23
2022-11-02T22:44:12.405Z,17.31
2022-11-02T22:46:42.388Z,17.31
2022-11-02T22:49:11.123Z,17.26
2022-11-02T22:51:41.275Z,17.16
2022-11-02T22:54:11.936Z,17.17
2022-11-02T22:56:39.386Z,17.13
2022-11-02T22:59:07.223Z,17.05
2022-11-02T23:01:36.382Z,16.93
2022-11-02T23:04:05.159Z,16.83
2022-11-02T23:06:33.603Z,16.79
2022-11-02T23:09:01.900Z,16.75
2022-11-02T23:11:33.107Z,16.67
2022-11-02T23:14:04.733Z,16.72
2022-11-02T23:16:43.900Z,16.72
2022-11-02T23:19:31.330Z,16.77
2022-11-02T23:22:26.590Z,16.87
2022-11-02T23:25:15.207Z,16.80
2022-11-02T23:28:03.894Z,16.54
2022-11-02T23:30:55.754Z,16.59
2022-11-02T23:33:25.589Z,16.56
2022-11-02T23:36:11.123Z,16.57
2022-11-02T23:39:04.225Z,16.54
2022-11-02T23:41:33.278Z,16.49
2022-11-02T23:44:14.173Z,16.36
2022-11-02T23:46:43.255Z,16.33
2022-11-02T23:49:11.721Z,16.30
2022-11-02T23:51:58.026Z,16.34
2022-11-02T23:54:44.394Z,16.42
2022-11-02T23:57:13.185Z,16.42
2022-11-02T23:59:40.728Z,16.53
